Time;durP1;ratioP1;P1;durP2;ratioP2;P2;SDS_P1;SDS_P2;PMS_P1;PMS_P2;Temp;Humidity;BMP_temperature;BMP_pressure;BME280_temperature;BME280_humidity;BME280_pressure;Samples;Min_cycle;Max_cycle;Signal;HPM_P1;HPM_P2
2021/03/13 04:14:50;;;;;;;29.52;15.07;;;-0.30;99.90;;;;;;5081093;28;20541;-68
2021/03/13 04:17:17;;;;;;;28.88;14.52;;;-0.30;99.90;;;;;;5089070;28;20058;-69
2021/03/13 04:19:43;;;;;;;23.90;14.27;;;-0.30;99.90;;;;;;5091509;28;20076;-69
2021/03/13 04:22:10;;;;;;;28.73;15.02;;;-0.20;99.90;;;;;;5106985;28;20238;-68
2021/03/13 04:24:38;;;;;;;25.83;14.48;;;-0.20;99.90;;;;;;5091221;28;20376;-69
2021/03/13 04:27:04;;;;;;;26.27;14.75;;;-0.20;99.90;;;;;;5091361;28;20039;-68
2021/03/13 04:29:30;;;;;;;25.90;14.00;;;-0.20;99.90;;;;;;5077180;28;20388;-68
2021/03/13 04:31:59;;;;;;;28.25;14.48;;;-0.20;99.90;;;;;;5091373;28;20016;-69
2021/03/13 04:34:25;;;;;;;23.33;14.35;;;-0.20;99.90;;;;;;5091020;28;20494;-69
2021/03/13 04:36:51;;;;;;;28.40;15.00;;;-0.20;99.90;;;;;;5091617;28;20028;-68
2021/03/13 04:39:18;;;;;;;24.80;14.40;;;-0.20;99.90;;;;;;5091184;28;20020;-68
2021/03/13 04:41:45;;;;;;;27.83;15.60;;;-0.10;99.90;;;;;;5091151;28;20107;-68
2021/03/13 04:44:11;;;;;;;28.20;14.35;;;-0.10;99.90;;;;;;5091231;28;20060;-68
2021/03/13 04:46:37;;;;;;;25.65;15.32;;;-0.10;99.90;;;;;;5091708;28;20480;-68
2021/03/13 04:49:05;;;;;;;28.08;15.13;;;-0.10;99.90;;;;;;5095192;28;20028;-68
2021/03/13 04:51:31;;;;;;;28.00;15.38;;;-0.10;99.90;;;;;;5095004;28;20096;-68
2021/03/13 04:53:57;;;;;;;26.98;14.15;;;-0.10;99.90;;;;;;5094954;28;20059;-68
2021/03/13 04:56:22;;;;;;;27.33;15.60;;;-0.10;99.90;;;;;;5095017;28;20060;-68
2021/03/13 04:58:48;;;;;;;28.73;14.70;;;-0.10;99.90;;;;;;5094799;28;20447;-68
2021/03/13 05:01:14;;;;;;;28.60;15.43;;;-0.20;99.90;;;;;;5095121;28;20020;-68
2021/03/13 05:03:40;;;;;;;24.75;14.70;;;-0.10;99.90;;;;;;5094989;28;20062;-68
2021/03/13 05:06:06;;;;;;;27.40;14.82;;;-0.10;99.90;;;;;;5094777;28;20024;-68
2021/03/13 05:08:31;;;;;;;28.08;15.40;;;-0.10;99.90;;;;;;5094561;28;20028;-68
2021/03/13 05:10:58;;;;;;;27.40;14.18;;;-0.10;99.90;;;;;;5094381;28;20107;-69
2021/03/13 05:13:24;;;;;;;25.05;14.82;;;-0.10;99.90;;;;;;5094436;28;20115;-68
2021/03/13 05:15:49;;;;;;;26.30;14.38;;;-0.10;99.90;;;;;;5094182;28;20115;-68
2021/03/13 05:18:15;;;;;;;24.65;14.85;;;-0.10;99.90;;;;;;5094803;28;20111;-67
2021/03/13 05:20:41;;;;;;;26.40;14.85;;;-0.10;99.90;;;;;;5094549;28;20498;-70
2021/03/13 05:23:06;;;;;;;27.92;14.82;;;-0.20;99.90;;;;;;5094699;28;20024;-70
2021/03/13 05:25:32;;;;;;;28.45;14.98;;;-0.10;99.90;;;;;;5094102;28;20024;-71
2021/03/13 05:27:58;;;;;;;29.13;14.43;;;-0.10;99.90;;;;;;5094131;28;20368;-68
2021/03/13 05:30:24;;;;;;;25.73;15.50;;;-0.10;99.90;;;;;;5094390;28;20078;-71
2021/03/13 05:32:49;;;;;;;29.08;15.20;;;-0.10;99.90;;;;;;5094025;28;20035;-68
2021/03/13 05:35:15;;;;;;;24.77;14.05;;;-0.10;99.90;;;;;;5094435;28;20028;-70
2021/03/13 05:37:41;;;;;;;25.10;15.23;;;-0.10;99.90;;;;;;5093959;28;20025;-69
2021/03/13 05:40:09;;;;;;;27.88;14.98;;;-0.10;99.90;;;;;;5093797;28;20157;-68
2021/03/13 05:42:36;;;;;;;24.52;12.48;;;-0.10;99.90;;;;;;5093809;28;20541;-69
2021/03/13 05:45:08;;;;;;;22.23;13.35;;;1.10;99.90;;;;;;5093823;28;20616;-70
2021/03/13 05:47:36;;;;;;;26.17;14.93;;;1.50;99.90;;;;;;5093953;28;20024;-69
2021/03/13 05:50:09;;;;;;;25.35;13.73;;;1.20;99.90;;;;;;5093028;28;20036;-68
2021/03/13 05:52:37;;;;;;;26.75;13.63;;;0.90;99.90;;;;;;5090928;28;20027;-70
2021/03/13 05:55:05;;;;;;;23.92;13.60;;;0.70;99.90;;;;;;5090672;28;20387;-73
2021/03/13 05:57:31;;;;;;;25.75;14.75;;;0.60;99.90;;;;;;5074877;28;20031;-72
2021/03/13 05:59:57;;;;;;;26.08;13.90;;;0.50;99.90;;;;;;5093253;28;20020;-73
2021/03/13 06:02:23;;;;;;;26.48;14.43;;;0.40;99.90;;;;;;5093036;28;20356;-70
2021/03/13 06:04:53;;;;;;;26.23;13.32;;;0.30;99.90;;;;;;5092257;28;20035;-71
2021/03/13 06:07:25;;;;;;;19.83;12.35;;;0.30;99.90;;;;;;5094137;28;20026;-71
2021/03/13 06:09:52;;;;;;;26.55;13.75;;;0.30;99.90;;;;;;5092937;28;20557;-71
2021/03/13 06:12:18;;;;;;;23.40;12.88;;;0.20;99.90;;;;;;5092839;28;20348;-72
2021/03/13 06:14:54;;;;;;;25.58;14.35;;;0.20;99.90;;;;;;5092585;28;20040;-71
2021/03/13 06:17:22;;;;;;;25.30;13.80;;;0.20;99.90;;;;;;5092283;28;20103;-71
2021/03/13 06:19:50;;;;;;;22.90;13.65;;;0.20;99.90;;;;;;5092418;28;20035;-69
2021/03/13 06:22:35;;;;;;;26.77;13.73;;;0.20;99.90;;;;;;5089809;28;20540;-71
2021/03/13 06:25:26;;;;;;;23.55;13.63;;;0.20;99.90;;;;;;5092852;28;20035;-72
2021/03/13 06:28:12;;;;;;;24.15;13.77;;;0.20;99.90;;;;;;5092337;28;20016;-71
2021/03/13 06:30:44;;;;;;;23.30;14.18;;;0.10;99.90;;;;;;5093294;28;20063;-72
2021/03/13 06:33:19;;;;;;;23.80;14.25;;;0.10;99.90;;;;;;5081178;28;20062;-70
2021/03/13 06:35:45;;;;;;;24.48;13.32;;;0.40;99.90;;;;;;5092963;28;20043;-70
2021/03/13 06:38:21;;;;;;;29.02;14.23;;;0.40;99.90;;;;;;5093374;28;20020;-70
2021/03/13 06:40:50;;;;;;;24.70;15.25;;;0.30;99.90;;;;;;5092930;28;20394;-70
2021/03/13 06:43:20;;;;;;;27.20;14.30;;;0.30;99.90;;;;;;5080117;28;20447;-70
2021/03/13 06:46:05;;;;;;;24.13;14.13;;;0.30;99.90;;;;;;5093002;28;20114;-70
2021/03/13 06:48:40;;;;;;;26.05;14.88;;;0.20;99.90;;;;;;5092618;28;20281;-70
2021/03/13 06:51:20;;;;;;;28.70;14.50;;;0.20;99.90;;;;;;5092536;28;20034;-70
2021/03/13 06:54:03;;;;;;;23.27;14.02;;;0.20;99.90;;;;;;5092756;28;20102;-67
2021/03/13 06:56:31;;;;;;;24.33;14.48;;;0.20;99.90;;;;;;5092228;28;20024;-67
2021/03/13 06:58:58;;;;;;;26.98;15.27;;;0.20;99.90;;;;;;5092536;28;20020;-67
2021/03/13 07:01:29;;;;;;;27.73;14.60;;;0.30;99.90;;;;;;5092335;28;20050;-67
2021/03/13 07:03:55;;;;;;;29.40;15.52;;;0.30;99.90;;;;;;5092579;28;20415;-69
2021/03/13 07:06:22;;;;;;;18.35;10.18;;;0.30;99.90;;;;;;5092366;28;20039;-71
2021/03/13 07:08:50;;;;;;;24.30;13.60;;;1.30;99.90;;;;;;5092157;28;20035;-71
2021/03/13 07:11:24;;;;;;;23.38;14.07;;;2.90;99.90;;;;;;5091789;28;20122;-71
2021/03/13 07:13:54;;;;;;;23.38;13.57;;;2.70;99.90;;;;;;5091904;28;20043;-71
2021/03/13 07:16:21;;;;;;;25.70;14.15;;;2.40;99.90;;;;;;5089249;28;20056;-72
2021/03/13 07:18:48;;;;;;;24.05;14.48;;;2.00;99.90;;;;;;5088869;28;20099;-73
2021/03/13 07:21:15;;;;;;;24.27;14.25;;;1.60;99.90;;;;;;5091641;28;20028;-75
2021/03/13 07:23:48;;;;;;;25.13;14.93;;;1.30;99.90;;;;;;5091450;28;20414;-78
2021/03/13 07:26:16;;;;;;;26.80;14.25;;;1.10;99.90;;;;;;5091779;28;20383;-74
2021/03/13 07:28:44;;;;;;;26.50;14.88;;;1.00;99.90;;;;;;5086856;28;20058;-74
2021/03/13 07:31:11;;;;;;;26.98;15.57;;;0.80;99.90;;;;;;5091523;28;20047;-80
2021/03/13 07:33:41;;;;;;;30.90;16.88;;;0.70;99.90;;;;;;5107158;28;20072;-72
2021/03/13 07:36:10;;;;;;;30.33;17.60;;;0.70;99.90;;;;;;5091438;28;20028;-73
2021/03/13 07:38:41;;;;;;;26.30;16.30;;;0.70;99.90;;;;;;5091733;28;20028;-72
2021/03/13 07:41:15;;;;;;;29.77;16.83;;;0.70;99.90;;;;;;5089611;28;20352;-73
2021/03/13 07:43:42;;;;;;;29.35;17.27;;;0.70;99.90;;;;;;5091803;28;20447;-76
2021/03/13 07:46:09;;;;;;;26.48;15.80;;;0.70;99.90;;;;;;5091524;28;20057;-71
2021/03/13 07:48:39;;;;;;;26.88;15.70;;;0.70;99.90;;;;;;5091683;28;20096;-73
2021/03/13 07:51:06;;;;;;;29.73;16.52;;;0.60;99.90;;;;;;5091350;28;20028;-69
2021/03/13 07:53:43;;;;;;;27.73;15.18;;;0.60;99.90;;;;;;5091371;28;20101;-73
2021/03/13 07:56:12;;;;;;;33.10;19.33;;;0.60;99.90;;;;;;5091641;28;20032;-74
2021/03/13 07:58:43;;;;;;;26.45;15.00;;;0.70;99.90;;;;;;5091251;28;20066;-73
2021/03/13 08:01:12;;;;;;;25.10;14.98;;;0.70;99.90;;;;;;5090954;28;20653;-73
2021/03/13 08:03:40;;;;;;;24.65;15.65;;;0.70;99.90;;;;;;5088322;28;20028;-74
2021/03/13 08:06:17;;;;;;;24.38;15.63;;;0.70;99.90;;;;;;5090861;28;20016;-73
2021/03/13 08:08:45;;;;;;;37.00;28.17;;;0.70;99.90;;;;;;5072484;28;20433;-74
2021/03/13 08:11:16;;;;;;;37.60;27.75;;;0.70;99.90;;;;;;5091315;28;20028;-71
2021/03/13 08:13:42;;;;;;;29.40;19.02;;;0.70;99.90;;;;;;5087141;28;20107;-67
2021/03/13 08:16:29;;;;;;;27.23;16.65;;;0.80;99.90;;;;;;5091514;28;20112;-70
2021/03/13 08:18:57;;;;;;;23.30;13.13;;;0.80;99.90;;;;;;5072375;28;20081;-72
2021/03/13 08:21:23;;;;;;;25.73;14.30;;;1.70;99.90;;;;;;5092283;28;20399;-71
2021/03/13 08:23:52;;;;;;;25.45;15.10;;;1.70;99.90;;;;;;5095038;28;20016;-70
2021/03/13 08:26:23;;;;;;;24.73;14.07;;;1.50;99.90;;;;;;5095635;28;20058;-72
2021/03/13 08:28:49;;;;;;;;;;;3.00;99.90;;;;;;5095647;28;20028;-72
2021/03/13 08:31:33;;;;;;;20.05;12.98;;;3.00;99.90;;;;;;5095337;28;19911;-72
2021/03/13 08:34:02;;;;;;;25.67;14.88;;;2.70;99.90;;;;;;5095220;28;20032;-72
2021/03/13 08:36:50;;;;;;;27.83;15.65;;;2.40;99.90;;;;;;5095331;28;20050;-72
2021/03/13 08:39:21;;;;;;;23.83;14.50;;;2.10;99.90;;;;;;5095165;28;20020;-72
2021/03/13 08:41:51;;;;;;;25.33;15.23;;;1.90;99.90;;;;;;5094758;28;20040;-72
2021/03/13 08:44:37;;;;;;;25.05;14.40;;;1.80;99.90;;;;;;5094796;28;20539;-72
2021/03/13 08:47:12;;;;;;;23.20;13.63;;;1.60;99.90;;;;;;5095067;28;20020;-72
2021/03/13 08:49:47;;;;;;;22.67;14.55;;;1.50;99.90;;;;;;5095036;28;20023;-72
2021/03/13 08:52:18;;;;;;;28.35;15.55;;;1.50;99.90;;;;;;5094999;28;20065;-72
2021/03/13 08:54:47;;;;;;;26.85;15.57;;;1.40;99.90;;;;;;5095051;28;20024;-72
2021/03/13 08:57:14;;;;;;;26.75;16.30;;;1.40;99.90;;;;;;5094934;28;20020;-72
2021/03/13 08:59:45;;;;;;;25.65;15.50;;;1.40;99.90;;;;;;5094783;28;20089;-72
2021/03/13 09:02:17;;;;;;;25.83;16.45;;;1.40;99.90;;;;;;5094679;28;20395;-72
2021/03/13 09:04:50;;;;;;;29.88;15.18;;;1.40;99.90;;;;;;5094641;28;20035;-72
2021/03/13 09:07:20;;;;;;;27.15;16.35;;;1.40;99.90;;;;;;5094990;28;20352;-72
2021/03/13 09:09:47;;;;;;;27.73;16.17;;;1.30;99.90;;;;;;5094823;28;20040;-72
2021/03/13 09:12:15;;;;;;;30.83;15.65;;;1.40;99.90;;;;;;5094314;28;20028;-72
2021/03/13 09:14:43;;;;;;;9.23;5.40;;;1.40;99.90;;;;;;5093403;28;20036;-70
2021/03/13 09:17:11;;;;;;;24.13;12.27;;;2.50;99.90;;;;;;5094097;28;20040;-68
2021/03/13 09:19:37;;;;;;;24.73;13.23;;;4.20;99.90;;;;;;5091363;28;20042;-68
2021/03/13 09:22:10;;;;;;;19.83;11.80;;;3.80;99.30;;;;;;5094014;28;20035;-67
2021/03/13 09:24:36;;;;;;;20.98;12.35;;;3.20;98.90;;;;;;5093827;28;20546;-68
2021/03/13 09:27:04;;;;;;;22.27;12.98;;;2.80;99.90;;;;;;5094074;28;20027;-68
2021/03/13 09:29:41;;;;;;;21.27;12.00;;;2.40;99.90;;;;;;5080344;28;20083;-68
2021/03/13 09:32:08;;;;;;;23.08;13.00;;;2.60;99.90;;;;;;5094244;28;20028;-68
2021/03/13 09:34:39;;;;;;;20.80;13.60;;;2.80;99.90;;;;;;5093348;28;20022;-68
2021/03/13 09:37:15;;;;;;;25.85;13.85;;;2.60;99.90;;;;;;5093778;28;20387;-69
2021/03/13 09:39:46;;;;;;;26.02;13.40;;;2.40;99.90;;;;;;5093833;28;20016;-70
2021/03/13 09:42:15;;;;;;;24.05;13.63;;;2.20;99.90;;;;;;5093766;28;20035;-70
2021/03/13 09:44:44;;;;;;;21.35;12.82;;;2.10;99.90;;;;;;5093617;28;20039;-70
2021/03/13 09:47:20;;;;;;;26.33;15.20;;;2.00;99.90;;;;;;5090577;28;20099;-69
2021/03/13 09:49:50;;;;;;;23.38;14.43;;;1.90;99.90;;;;;;5092924;28;20142;-67
2021/03/13 09:52:27;;;;;;;24.45;15.07;;;1.90;99.90;;;;;;5091084;28;20027;-67
2021/03/13 09:55:09;;;;;;;21.80;13.60;;;1.80;99.90;;;;;;5093334;28;20027;-67
2021/03/13 09:57:36;;;;;;;22.00;13.70;;;1.80;99.90;;;;;;5089482;28;20019;-67
2021/03/13 10:00:12;;;;;;;23.02;13.60;;;1.70;99.90;;;;;;5091880;28;20031;-67
2021/03/13 10:02:39;;;;;;;22.92;13.05;;;1.80;99.90;;;;;;5089601;28;20040;-69
2021/03/13 10:05:06;;;;;;;17.15;11.20;;;1.70;99.90;;;;;;5092405;28;20016;-69
2021/03/13 10:07:38;;;;;;;22.27;12.55;;;1.60;99.90;;;;;;5089525;28;20034;-68
2021/03/13 10:10:04;;;;;;;20.92;12.27;;;1.60;99.90;;;;;;5085502;28;20040;-69
2021/03/13 10:12:33;;;;;;;25.23;12.52;;;1.50;99.90;;;;;;5092444;28;20016;-68
2021/03/13 10:15:12;;;;;;;23.05;12.88;;;1.60;99.90;;;;;;5092722;28;20062;-69
2021/03/13 10:18:05;;;;;;;22.35;12.88;;;1.50;99.90;;;;;;5090868;28;20020;-68
2021/03/13 10:20:47;;;;;;;22.25;11.75;;;1.50;99.90;;;;;;5092736;28;20020;-69
2021/03/13 10:23:25;;;;;;;21.10;12.30;;;1.50;99.90;;;;;;5092459;28;20028;-68
2021/03/13 10:26:01;;;;;;;23.30;11.30;;;1.40;99.90;;;;;;5092635;28;20025;-69
2021/03/13 10:28:29;;;;;;;17.67;10.85;;;1.50;99.90;;;;;;5093078;28;20103;-69
2021/03/13 10:31:11;;;;;;;20.80;11.82;;;1.40;99.90;;;;;;5092878;28;20114;-68
2021/03/13 10:33:41;;;;;;;21.25;12.05;;;1.30;99.90;;;;;;5093145;28;20566;-69
2021/03/13 10:36:08;;;;;;;;;;;1.40;99.90;;;;;;5093544;28;20028;-69
2021/03/13 10:38:44;;;;;;;19.27;12.63;;;1.40;99.90;;;;;;5092895;28;19911;-70
2021/03/13 10:41:12;;;;;;;19.70;12.35;;;1.50;99.90;;;;;;5093052;28;20544;-69
2021/03/13 10:43:40;;;;;;;18.08;11.02;;;1.50;99.90;;;;;;5092726;28;20020;-69
2021/03/13 10:46:18;;;;;;;17.55;10.02;;;1.50;99.90;;;;;;5092630;28;20020;-69
2021/03/13 10:48:47;;;;;;;17.50;10.75;;;1.30;99.90;;;;;;5092561;28;20417;-70
2021/03/13 10:51:22;;;;;;;17.98;11.48;;;1.40;99.90;;;;;;5092547;28;20539;-69
2021/03/13 10:53:48;;;;;;;20.73;12.45;;;1.40;99.90;;;;;;5060639;28;20391;-69
2021/03/13 10:56:14;;;;;;;22.67;12.35;;;1.40;99.90;;;;;;5092599;28;20024;-71
2021/03/13 10:58:50;;;;;;;19.70;12.77;;;1.50;99.90;;;;;;5092468;28;20027;-70
2021/03/13 11:01:17;;;;;;;21.88;12.80;;;1.50;99.90;;;;;;5092427;28;20024;-69
2021/03/13 11:03:44;;;;;;;20.98;11.73;;;1.50;99.90;;;;;;5092249;28;20100;-69
2021/03/13 11:06:23;;;;;;;21.88;11.77;;;1.50;99.90;;;;;;5092433;28;20495;-70
2021/03/13 11:08:52;;;;;;;19.23;11.32;;;1.50;99.90;;;;;;5092056;28;20028;-70
2021/03/13 11:11:18;;;;;;;24.00;13.63;;;1.50;99.90;;;;;;5092279;28;20475;-69
2021/03/13 11:13:44;;;;;;;22.15;13.18;;;1.50;99.90;;;;;;5083483;28;20035;-69
2021/03/13 11:16:09;;;;;;;23.85;13.98;;;1.50;99.90;;;;;;5091759;28;20065;-69
2021/03/13 11:18:35;;;;;;;24.98;14.43;;;1.50;99.90;;;;;;5091504;28;20556;-69
2021/03/13 11:21:02;;;;;;;22.73;12.35;;;1.50;99.90;;;;;;5089684;28;20028;-68
2021/03/13 11:23:28;;;;;;;23.73;13.27;;;1.50;99.90;;;;;;5092229;28;20494;-70
2021/03/13 11:25:54;;;;;;;23.90;13.32;;;1.50;99.90;;;;;;5075716;28;20024;-70
2021/03/13 11:28:20;;;;;;;22.42;12.73;;;1.50;99.90;;;;;;5091824;28;20034;-71
2021/03/13 11:30:47;;;;;;;23.15;13.13;;;1.50;99.90;;;;;;5091978;28;20065;-71
2021/03/13 11:33:13;;;;;;;21.02;11.77;;;1.50;99.90;;;;;;5092080;28;20027;-70
2021/03/13 11:35:39;;;;;;;20.77;11.13;;;1.50;99.90;;;;;;5092088;28;20093;-74
2021/03/13 11:38:05;;;;;;;18.52;11.23;;;1.60;99.90;;;;;;5091591;28;20475;-73
2021/03/13 11:40:31;;;;;;;26.58;13.05;;;2.00;99.90;;;;;;5091996;28;20020;-74
2021/03/13 11:42:59;;;;;;;21.77;12.32;;;2.00;99.90;;;;;;5091519;28;20020;-81
2021/03/13 11:45:26;;;;;;;22.30;11.50;;;1.90;99.90;;;;;;5091793;28;20069;-77
2021/03/13 11:47:56;;;;;;;24.33;13.27;;;1.80;99.90;;;;;;5091341;28;20103;-71
2021/03/13 11:50:27;;;;;;;22.65;12.50;;;1.70;99.90;;;;;;5091754;28;20040;-70
2021/03/13 11:52:55;;;;;;;23.67;13.75;;;1.70;99.90;;;;;;5091828;28;20383;-69
2021/03/13 11:55:22;;;;;;;20.88;11.35;;;1.70;99.90;;;;;;5091559;28;20020;-72
2021/03/13 11:57:48;;;;;;;17.70;11.13;;;1.70;99.90;;;;;;5091300;28;20476;-74
2021/03/13 12:00:14;;;;;;;18.90;11.35;;;1.50;99.90;;;;;;5091489;28;20107;-72
2021/03/13 12:02:40;;;;;;;22.25;11.82;;;1.30;99.90;;;;;;5087554;28;20028;-69
2021/03/13 12:05:07;;;;;;;20.15;11.82;;;1.30;99.90;;;;;;5091409;28;20368;-71
2021/03/13 12:07:34;;;;;;;22.20;12.15;;;1.40;99.90;;;;;;5091195;28;20016;-74
2021/03/13 12:10:00;;;;;;;22.30;12.05;;;1.40;99.90;;;;;;5091387;28;20032;-67
2021/03/13 12:12:26;;;;;;;19.17;11.95;;;1.40;99.90;;;;;;5091295;28;20015;-67
2021/03/13 12:14:52;;;;;;;23.67;12.77;;;1.40;99.90;;;;;;5091177;28;20055;-76
2021/03/13 12:17:18;;;;;;;24.70;12.15;;;1.30;99.90;;;;;;5091269;28;20099;-70
2021/03/13 12:19:46;;;;;;;21.83;10.75;;;1.40;99.90;;;;;;5091097;28;20126;-72
2021/03/13 12:22:13;;;;;;;16.40;10.10;;;1.90;99.90;;;;;;5091171;28;20573;-69
2021/03/13 12:24:39;;;;;;;18.13;11.77;;;2.20;99.90;;;;;;5091391;28;20106;-70
2021/03/13 12:27:05;;;;;;;22.00;11.43;;;2.30;99.90;;;;;;5091026;28;20028;-74
2021/03/13 12:29:31;;;;;;;20.75;11.55;;;2.00;99.90;;;;;;5090512;28;20157;-73
2021/03/13 12:31:57;;;;;;;20.73;10.93;;;1.80;99.90;;;;;;5091073;28;20069;-72
2021/03/13 12:34:23;;;;;;;15.27;8.77;;;1.70;99.90;;;;;;5091240;28;20555;-74
2021/03/13 12:36:49;;;;;;;22.83;12.65;;;1.80;99.90;;;;;;5091284;28;20142;-80
2021/03/13 12:39:18;;;;;;;17.83;11.80;;;2.50;99.90;;;;;;5091191;28;20383;-76
2021/03/13 12:41:45;;;;;;;18.33;11.70;;;2.10;99.90;;;;;;5091022;28;20027;-68
2021/03/13 12:44:11;;;;;;;17.10;12.10;;;1.90;99.90;;;;;;5090836;28;20178;-67
2021/03/13 12:46:38;;;;;;;22.85;12.13;;;1.80;99.90;;;;;;5091506;28;20017;-68
2021/03/13 12:49:05;;;;;;;21.73;12.90;;;1.70;99.90;;;;;;5091060;28;20028;-67
2021/03/13 12:51:31;;;;;;;20.92;12.35;;;1.60;99.90;;;;;;5090654;28;20056;-68
2021/03/13 12:53:56;;;;;;;21.67;12.82;;;1.60;99.90;;;;;;5091079;28;20693;-68
2021/03/13 12:56:22;;;;;;;21.98;13.32;;;1.60;99.90;;;;;;5090996;28;20664;-67
2021/03/13 12:58:48;;;;;;;20.88;13.60;;;1.50;99.90;;;;;;5090635;28;20027;-68
2021/03/13 13:01:14;;;;;;;24.35;13.70;;;1.50;99.90;;;;;;5090420;28;20055;-67
2021/03/13 13:03:40;;;;;;;26.23;13.88;;;1.40;99.90;;;;;;5091144;28;20073;-68
2021/03/13 13:06:05;;;;;;;26.08;14.38;;;1.40;99.90;;;;;;5091224;28;20487;-68
2021/03/13 13:08:31;;;;;;;26.42;13.02;;;1.40;99.90;;;;;;5092282;28;20024;-68
2021/03/13 13:10:57;;;;;;;27.85;12.85;;;1.60;99.90;;;;;;5094591;28;20134;-70
2021/03/13 13:13:24;;;;;;;23.60;14.02;;;1.60;99.90;;;;;;5094299;28;20073;-70
2021/03/13 13:15:52;;;;;;;23.70;12.88;;;1.50;99.90;;;;;;5094355;28;20499;-68
2021/03/13 13:18:23;;;;;;;23.98;12.60;;;1.60;99.90;;;;;;5094640;28;20065;-69
2021/03/13 13:20:49;;;;;;;20.27;12.93;;;1.60;99.90;;;;;;5094554;28;20016;-69
2021/03/13 13:23:15;;;;;;;21.80;12.57;;;1.60;99.90;;;;;;5094515;28;20026;-68
2021/03/13 13:25:45;;;;;;;25.85;13.32;;;1.50;99.90;;;;;;5094481;28;20020;-68
2021/03/13 13:28:11;;;;;;;24.17;13.75;;;1.40;99.90;;;;;;5090028;28;20028;-69
2021/03/13 13:30:37;;;;;;;24.70;13.25;;;1.30;99.90;;;;;;5093417;28;20058;-69
2021/03/13 13:33:04;;;;;;;24.30;13.02;;;1.30;99.90;;;;;;5093550;28;20013;-68
2021/03/13 13:35:30;;;;;;;25.02;14.40;;;1.20;99.90;;;;;;5093935;28;20099;-67
2021/03/13 13:37:56;;;;;;;27.23;13.95;;;1.10;99.90;;;;;;5093105;28;20073;-68
2021/03/13 13:40:23;;;;;;;27.27;14.02;;;1.10;99.90;;;;;;5093560;28;20098;-67
2021/03/13 13:42:49;;;;;;;24.15;13.25;;;1.10;99.90;;;;;;5093490;28;20020;-68
2021/03/13 13:45:16;;;;;;;25.20;14.65;;;1.10;99.90;;;;;;5074994;28;20498;-68
2021/03/13 13:47:42;;;;;;;26.27;13.95;;;1.10;99.90;;;;;;5093157;28;20028;-68
2021/03/13 13:50:11;;;;;;;33.60;14.88;;;1.20;99.90;;;;;;5093478;28;20092;-69
2021/03/13 13:52:41;;;;;;;22.30;12.70;;;1.30;99.90;;;;;;5093802;28;20031;-68
2021/03/13 13:55:08;;;;;;;26.13;14.63;;;1.30;99.90;;;;;;5090438;28;20028;-67
2021/03/13 13:57:35;;;;;;;21.20;13.43;;;1.20;99.90;;;;;;5093137;28;20050;-67
2021/03/13 14:00:01;;;;;;;19.50;12.10;;;1.20;99.90;;;;;;5090548;28;20044;-67
2021/03/13 14:02:26;;;;;;;28.40;13.57;;;1.10;99.90;;;;;;5093187;28;20633;-68
2021/03/13 14:04:52;;;;;;;23.50;13.23;;;1.10;99.90;;;;;;5092509;28;20027;-67
2021/03/13 14:07:19;;;;;;;21.10;13.00;;;1.20;99.90;;;;;;5092634;28;20016;-67
2021/03/13 14:09:45;;;;;;;22.50;12.88;;;1.20;99.90;;;;;;5074575;28;20036;-67
2021/03/13 14:12:11;;;;;;;24.33;13.60;;;1.20;99.90;;;;;;5092894;28;20024;-68
2021/03/13 14:14:38;;;;;;;20.33;12.57;;;1.30;99.90;;;;;;5093195;28;20040;-68
2021/03/13 14:17:03;;;;;;;17.75;11.68;;;1.20;99.90;;;;;;5093369;28;20031;-68
2021/03/13 14:19:29;;;;;;;20.60;12.30;;;1.10;99.90;;;;;;5092995;28;20091;-68
2021/03/13 14:21:55;;;;;;;17.25;11.38;;;1.10;99.90;;;;;;5093349;28;20071;-68
2021/03/13 14:24:20;;;;;;;22.45;12.77;;;1.10;99.90;;;;;;5093242;28;20024;-68
2021/03/13 14:26:46;;;;;;;19.15;12.73;;;1.10;99.90;;;;;;5093103;28;20103;-67
2021/03/13 14:29:13;;;;;;;20.42;12.82;;;1.10;99.90;;;;;;5092370;28;20513;-67
2021/03/13 14:31:39;;;;;;;18.98;12.40;;;1.10;99.90;;;;;;5092224;28;20061;-71
2021/03/13 14:34:05;;;;;;;22.35;13.00;;;1.10;99.90;;;;;;5093026;28;20497;-70
2021/03/13 14:36:32;;;;;;;23.30;12.60;;;1.10;99.90;;;;;;5077283;28;20080;-70
2021/03/13 14:38:58;;;;;;;22.73;12.57;;;1.10;99.90;;;;;;5087664;28;20110;-70
2021/03/13 14:41:25;;;;;;;20.63;12.05;;;1.10;99.90;;;;;;5091277;28;20013;-69
2021/03/13 14:43:51;;;;;;;19.75;12.48;;;1.20;99.90;;;;;;5092442;28;20071;-70
2021/03/13 14:46:19;;;;;;;18.45;12.40;;;1.10;99.90;;;;;;5091958;28;20483;-73
2021/03/13 14:48:45;;;;;;;18.75;11.52;;;1.20;99.90;;;;;;5089313;28;20024;-71
2021/03/13 14:51:11;;;;;;;20.77;11.98;;;1.20;99.90;;;;;;5073979;28;20496;-71
2021/03/13 14:53:36;;;;;;;19.67;12.50;;;1.10;99.90;;;;;;5092286;28;20020;-71
2021/03/13 14:56:02;;;;;;;20.35;12.35;;;1.10;99.90;;;;;;5092204;28;20031;-70
2021/03/13 14:58:30;;;;;;;21.63;13.30;;;1.10;99.90;;;;;;5091972;28;20035;-71
2021/03/13 15:00:57;;;;;;;16.67;11.68;;;1.10;99.90;;;;;;5092140;28;20028;-70
2021/03/13 15:03:23;;;;;;;20.40;12.05;;;1.00;99.90;;;;;;5091960;28;20024;-70
2021/03/13 15:05:49;;;;;;;17.17;11.45;;;1.00;99.90;;;;;;5092216;28;20383;-68
2021/03/13 15:08:14;;;;;;;21.58;13.23;;;1.00;99.90;;;;;;5091334;28;20065;-72
2021/03/13 15:10:40;;;;;;;23.65;13.40;;;1.00;99.90;;;;;;5091752;28;20047;-69
2021/03/13 15:13:06;;;;;;;20.70;12.98;;;1.00;99.90;;;;;;5092102;28;20410;-70
2021/03/13 15:15:32;;;;;;;22.77;13.13;;;1.00;99.90;;;;;;5088753;28;20048;-68
2021/03/13 15:17:58;;;;;;;23.02;13.70;;;1.00;99.90;;;;;;5091637;28;20024;-69
2021/03/13 15:20:24;;;;;;;24.60;14.23;;;1.00;99.90;;;;;;5091869;28;20031;-69
2021/03/13 15:22:50;;;;;;;22.45;13.25;;;1.00;99.90;;;;;;5073530;28;20050;-70
2021/03/13 15:25:19;;;;;;;21.75;12.85;;;1.00;99.90;;;;;;5092019;28;20065;-70
2021/03/13 15:27:45;;;;;;;23.77;13.93;;;0.90;99.90;;;;;;5091298;28;20511;-69
2021/03/13 15:30:16;;;;;;;21.50;13.30;;;0.90;99.90;;;;;;5091118;28;20040;-69
2021/03/13 15:32:43;;;;;;;24.95;13.93;;;0.90;99.90;;;;;;5091336;28;20016;-69
2021/03/13 15:35:10;;;;;;;23.70;14.18;;;0.80;99.90;;;;;;5091698;28;20028;-69
2021/03/13 15:37:36;;;;;;;25.42;14.43;;;0.90;99.90;;;;;;5091362;28;20023;-69
2021/03/13 15:40:03;;;;;;;25.40;13.57;;;0.90;99.90;;;;;;5090966;28;20379;-69
2021/03/13 15:42:29;;;;;;;24.10;14.00;;;0.90;99.90;;;;;;5091391;28;20078;-69
2021/03/13 15:44:55;;;;;;;22.83;13.35;;;0.90;99.90;;;;;;5091637;28;20475;-69
2021/03/13 15:47:20;;;;;;;26.13;14.25;;;0.90;99.90;;;;;;5091460;28;20556;-69
2021/03/13 15:49:47;;;;;;;23.48;13.35;;;0.90;99.90;;;;;;5091383;28;20141;-69
2021/03/13 15:52:14;;;;;;;26.27;14.10;;;0.90;99.90;;;;;;5091085;28;20056;-72
2021/03/13 15:54:40;;;;;;;26.38;15.30;;;0.90;99.90;;;;;;5091958;28;20034;-71
2021/03/13 15:57:06;;;;;;;23.15;13.77;;;1.00;99.90;;;;;;5091564;28;20020;-70
2021/03/13 15:59:31;;;;;;;21.15;12.75;;;1.10;99.90;;;;;;5088367;28;20103;-70
2021/03/13 16:01:57;;;;;;;22.80;13.10;;;1.10;99.90;;;;;;5090581;28;20095;-69
2021/03/13 16:04:23;;;;;;;29.35;15.05;;;1.10;99.90;;;;;;5090453;28;20372;-69
2021/03/13 16:06:50;;;;;;;25.48;14.20;;;1.10;99.90;;;;;;5091410;28;20103;-70
2021/03/13 16:09:16;;;;;;;28.17;15.45;;;1.00;99.90;;;;;;5072686;28;20054;-67
2021/03/13 16:11:42;;;;;;;25.67;14.30;;;1.00;99.90;;;;;;5091219;28;20028;-70
2021/03/13 16:14:08;;;;;;;23.38;13.13;;;1.00;99.90;;;;;;5090864;28;20541;-70
2021/03/13 16:16:34;;;;;;;25.25;13.57;;;1.00;99.90;;;;;;5091476;28;20038;-69
2021/03/13 16:19:00;;;;;;;24.20;14.55;;;1.00;99.90;;;;;;5090928;28;20482;-69
2021/03/13 16:21:26;;;;;;;27.85;15.15;;;1.10;99.90;;;;;;5091215;28;20033;-69
2021/03/13 16:23:52;;;;;;;21.05;12.85;;;1.00;99.90;;;;;;5091070;28;20032;-69
2021/03/13 16:26:18;;;;;;;22.67;13.88;;;1.00;99.90;;;;;;5091215;28;20024;-69
2021/03/13 16:28:45;;;;;;;24.55;14.05;;;1.00;99.90;;;;;;5091229;28;20471;-67
2021/03/13 16:31:10;;;;;;;26.75;14.35;;;1.00;99.90;;;;;;5090514;28;20111;-69
2021/03/13 16:33:37;;;;;;;26.20;14.50;;;1.00;99.90;;;;;;5090924;28;20024;-69
2021/03/13 16:36:07;;;;;;;26.85;15.10;;;0.90;99.90;;;;;;5091427;28;20031;-69
2021/03/13 16:38:33;;;;;;;26.13;14.10;;;0.80;99.90;;;;;;5090952;28;20019;-69
2021/03/13 16:40:59;;;;;;;24.25;15.38;;;0.80;99.90;;;;;;5090623;28;20392;-70
2021/03/13 16:43:26;;;;;;;26.65;15.25;;;0.80;99.90;;;;;;5094131;28;20016;-71
2021/03/13 16:45:52;;;;;;;22.77;14.48;;;0.80;99.90;;;;;;5095269;28;20023;-71
2021/03/13 16:48:18;;;;;;;28.30;16.02;;;0.70;99.90;;;;;;5095200;28;20020;-69
2021/03/13 16:50:43;;;;;;;26.38;14.50;;;0.70;99.90;;;;;;5095030;28;20054;-70
2021/03/13 16:53:15;;;;;;;17.02;10.02;;;0.60;99.90;;;;;;5094486;28;20468;-67
2021/03/13 16:55:44;;;;;;;23.85;14.48;;;0.60;99.90;;;;;;5096192;28;20081;-70